Time;durP1;ratioP1;P1;durP2;ratioP2;P2;SDS_P1;SDS_P2;PMS_P1;PMS_P2;Temp;Humidity;BMP_temperature;BMP_pressure;BME280_temperature;BME280_humidity;BME280_pressure;Samples;Min_cycle;Max_cycle;Signal;HPM_P1;HPM_P2
2023/12/11 00:02:50;;;;;;;2.20;1.58;;;;;;;13.17;100.00;100880.31;10563219;27;20048;-85
2023/12/11 00:08:17;;;;;;;2.20;1.85;;;;;;;13.28;100.00;100873.31;10574902;28;20568;-83
2023/12/11 00:13:39;;;;;;;2.40;1.70;;;;;;;13.10;100.00;100876.69;10580616;27;20052;-84
2023/12/11 00:19:03;;;;;;;3.83;1.60;;;;;;;13.35;100.00;100863.63;10583246;28;20135;-84
2023/12/11 00:24:26;;;;;;;3.53;1.55;;;;;;;13.49;100.00;100870.78;10590374;28;20050;-82
2023/12/11 00:29:51;;;;;;;4.07;1.30;;;;;;;13.52;100.00;100849.56;10576777;28;20051;-82
2023/12/11 00:35:18;;;;;;;3.33;1.70;;;;;;;13.38;100.00;100842.44;10586505;28;20043;-83
2023/12/11 00:40:41;;;;;;;2.25;1.58;;;;;;;13.47;100.00;100840.72;10582703;28;20047;-83
2023/12/11 00:46:04;;;;;;;2.17;1.58;;;;;;;13.61;100.00;100845.19;10558059;28;20158;-84
2023/12/11 00:51:29;;;;;;;2.55;1.60;;;;;;;13.70;100.00;100826.66;10580060;28;20048;-84
2023/12/11 00:57:01;;;;;;;2.17;1.50;;;;;;;13.78;100.00;100823.19;10580993;28;20244;-85
2023/12/11 01:02:25;;;;;;;2.63;1.45;;;;;;;13.88;100.00;100816.13;10589947;28;20139;-84
2023/12/11 01:07:52;;;;;;;2.75;2.00;;;;;;;13.81;100.00;100819.63;10596005;27;20043;-85
2023/12/11 01:13:14;;;;;;;7.13;2.88;;;;;;;13.63;100.00;100815.16;10572087;27;20039;-82
2023/12/11 01:18:37;;;;;;;5.00;2.90;;;;;;;13.53;100.00;100803.59;10569145;27;20051;-83
2023/12/11 01:24:01;;;;;;;6.78;4.43;;;;;;;13.51;100.00;100800.09;10591806;27;20055;-84
2023/12/11 01:29:24;;;;;;;4.22;2.78;;;;;;;13.39;100.00;100789.41;10574587;27;20143;-84
2023/12/11 01:34:46;;;;;;;3.80;2.20;;;;;;;13.43;100.00;100787.66;10592137;27;20051;-88
2023/12/11 01:40:13;;;;;;;3.17;1.63;;;;;;;13.35;100.00;100778.78;10593072;27;20134;-87
2023/12/11 01:45:36;;;;;;;18.67;13.93;;;;;;;13.47;100.00;100776.16;10607208;27;20055;-86
2023/12/11 01:51:01;;;;;;;20.60;16.73;;;;;;;13.55;100.00;100775.34;10564542;27;20046;-85
2023/12/11 01:56:27;;;;;;;3.72;2.33;;;;;;;13.37;100.00;100763.78;10581514;27;20583;-86
2023/12/11 02:01:52;;;;;;;1.65;1.52;;;;;;;13.22;100.00;100761.94;10591300;27;20055;-85
2023/12/11 02:07:14;;;;;;;3.35;1.60;;;;;;;13.13;100.00;100768.06;10581866;27;20083;-85
2023/12/11 02:12:39;;;;;;;1.98;1.25;;;;;;;13.29;100.00;100769.03;10574644;27;20051;-84
2023/12/11 02:18:02;;;;;;;3.33;1.55;;;;;;;13.33;100.00;100762.84;10588783;27;20488;-85
2023/12/11 02:23:33;;;;;;;1.77;1.27;;;;;;;13.33;100.00;100765.50;10563557;27;20559;-87
2023/12/11 02:28:58;;;;;;;1.88;1.30;;;;;;;13.41;100.00;100766.44;10593779;27;20043;-87
2023/12/11 02:34:22;;;;;;;3.35;1.20;;;;;;;13.42;100.00;100767.31;10578307;27;20048;-89
2023/12/11 02:39:46;;;;;;;1.65;1.20;;;;;;;13.57;100.00;100764.72;10586159;27;20051;-87
2023/12/11 02:45:11;;;;;;;2.15;1.35;;;;;;;13.68;100.00;100762.09;10570673;27;20050;-87
2023/12/11 02:50:34;;;;;;;3.20;1.60;;;;;;;13.69;100.00;100756.81;10572328;27;20133;-85
2023/12/11 02:55:56;;;;;;;2.15;1.17;;;;;;;13.74;100.00;100746.19;10584404;27;20051;-85
2023/12/11 03:01:20;;;;;;;2.30;1.20;;;;;;;13.63;100.00;100740.00;10581446;27;20045;-85
2023/12/11 03:06:43;;;;;;;0.95;0.88;;;;;;;13.66;100.00;100739.97;10578020;27;20070;-86
2023/12/11 03:12:06;;;;;;;2.55;1.30;;;;;;;13.59;100.00;100744.38;10594422;27;20043;-90
2023/12/11 03:17:30;;;;;;;2.85;1.20;;;;;;;13.62;100.00;100748.81;10565119;27;20047;-84
2023/12/11 03:22:53;;;;;;;1.13;0.77;;;;;;;13.65;100.00;100752.38;10571095;27;20065;-84
2023/12/11 03:28:15;;;;;;;1.67;1.20;;;;;;;13.66;100.00;100755.91;10577909;27;20101;-84
2023/12/11 03:33:40;;;;;;;1.33;0.90;;;;;;;13.55;100.00;100758.53;10576536;27;20051;-84
2023/12/11 03:39:03;;;;;;;1.35;0.85;;;;;;;13.48;100.00;100762.03;10559719;27;20050;-84
2023/12/11 03:44:26;;;;;;;8.68;5.15;;;;;;;13.62;100.00;100760.31;10582294;27;20044;-85
2023/12/11 03:49:51;;;;;;;7.20;4.88;;;;;;;13.59;100.00;100762.94;10572762;27;20125;-85
2023/12/11 03:55:14;;;;;;;4.13;1.70;;;;;;;13.45;100.00;100778.84;10551044;27;20079;-85
2023/12/11 04:00:36;;;;;;;2.13;1.70;;;;;;;13.42;100.00;100773.50;10581675;27;20043;-86
2023/12/11 04:06:01;;;;;;;6.57;1.40;;;;;;;13.63;100.00;100788.63;10603704;27;20043;-84
2023/12/11 04:11:23;;;;;;;5.82;2.20;;;;;;;13.92;100.00;100791.34;10583055;27;20047;-84
2023/12/11 04:16:46;;;;;;;2.17;1.98;;;;;;;14.22;100.00;100787.88;10590622;27;20559;-85
2023/12/11 04:22:10;;;;;;;3.00;1.30;;;;;;;14.27;100.00;100786.09;10576107;28;20067;-85
2023/12/11 04:27:34;;;;;;;3.55;1.10;;;;;;;14.45;100.00;100807.38;10561644;28;20044;-87
2023/12/11 04:32:57;;;;;;;2.67;1.25;;;;;;;14.62;100.00;100808.28;10602053;28;20051;-87
2023/12/11 04:38:22;;;;;;;4.43;0.90;;;;;;;14.72;100.00;100803.84;10578189;28;20655;-88
2023/12/11 04:43:45;;;;;;;3.22;1.38;;;;;;;14.73;100.00;100801.19;10592962;28;20051;-86
2023/12/11 04:49:13;;;;;;;1.95;0.93;;;;;;;14.70;100.00;100806.50;10542398;28;20497;-88
2023/12/11 04:54:38;;;;;;;5.43;2.42;;;;;;;14.79;100.00;100818.91;10540409;28;20530;-84
2023/12/11 05:00:00;;;;;;;5.03;2.45;;;;;;;14.75;100.00;100819.81;10524658;28;20127;-83
2023/12/11 05:05:24;;;;;;;3.67;1.30;;;;;;;14.78;100.00;100825.09;10537878;28;20083;-85
2023/12/11 05:10:48;;;;;;;1.95;1.50;;;;;;;14.59;100.00;100832.19;10525771;28;20132;-84
2023/12/11 05:16:11;;;;;;;1.98;1.17;;;;;;;14.49;100.00;100837.50;10533291;28;20055;-84
2023/12/11 05:21:35;;;;;;;4.70;2.28;;;;;;;14.52;100.00;100849.00;10539860;28;20055;-84
2023/12/11 05:27:03;;;;;;;2.33;1.02;;;;;;;14.67;100.00;100856.13;10539145;28;20044;-84
2023/12/11 05:32:25;;;;;;;4.37;1.40;;;;;;;14.85;100.00;100857.88;10539625;28;20039;-83
2023/12/11 05:37:48;;;;;;;5.30;1.65;;;;;;;14.95;100.00;100864.97;10538143;28;20051;-84
2023/12/11 05:43:12;;;;;;;3.58;1.48;;;;;;;15.01;100.00;100860.53;10537999;28;20036;-84
2023/12/11 05:48:34;;;;;;;5.15;2.00;;;;;;;15.05;100.00;100867.59;10537299;28;20433;-84
2023/12/11 05:53:57;;;;;;;5.95;3.40;;;;;;;15.13;100.00;100871.16;10538144;28;20063;-85
2023/12/11 05:59:21;;;;;;;5.28;2.00;;;;;;;15.13;100.00;100860.53;10536096;28;20528;-83
2023/12/11 06:04:43;;;;;;;4.90;2.83;;;;;;;14.93;100.00;100875.59;10523462;28;20055;-84
2023/12/11 06:10:06;;;;;;;3.75;1.80;;;;;;;15.03;100.00;100877.34;10523053;28;20048;-84
2023/12/11 06:15:30;;;;;;;12.20;5.78;;;;;;;15.41;100.00;100881.75;10536805;28;20066;-84
2023/12/11 06:20:53;;;;;;;5.07;3.78;;;;;;;15.65;100.00;100881.72;10520284;28;20325;-86
2023/12/11 06:26:28;;;;;;;6.30;5.22;;;;;;;15.87;100.00;100888.75;10536964;28;20037;-85
2023/12/11 06:31:52;;;;;;;9.32;4.60;;;;;;;16.15;100.00;100877.94;10509229;28;20044;-85
2023/12/11 06:37:18;;;;;;;7.18;4.07;;;;;;;16.32;100.00;100886.72;10536258;28;20042;-86
2023/12/11 06:42:41;;;;;;;5.82;4.20;;;;;;;16.18;100.00;100892.13;10534776;28;20047;-85
2023/12/11 06:48:07;;;;;;;7.57;2.25;;;;;;;16.13;100.00;100899.28;10580421;27;20134;-84
2023/12/11 06:53:30;;;;;;;77.53;59.83;;;;;;;16.15;100.00;100904.56;10589307;27;20075;-85
2023/12/11 06:58:53;;;;;;;45.05;37.42;;;;;;;16.35;100.00;100908.91;10589086;27;20569;-85
2023/12/11 07:04:20;;;;;;;21.95;15.60;;;;;;;16.29;100.00;100905.38;10586726;27;20469;-86
2023/12/11 07:09:46;;;;;;;29.15;17.73;;;;;;;16.56;100.00;100910.56;10590658;27;20051;-85
2023/12/11 07:15:09;;;;;;;27.10;19.58;;;;;;;16.93;100.00;100919.22;10599333;27;20043;-84
2023/12/11 07:20:35;;;;;;;16.85;10.02;;;;;;;16.95;100.00;100916.53;10605322;27;20065;-85
2023/12/11 07:25:59;;;;;;;12.38;9.57;;;;;;;17.11;100.00;100919.06;10591268;27;20050;-84
2023/12/11 07:31:22;;;;;;;15.52;7.50;;;;;;;16.92;100.00;100917.44;10596719;27;20054;-84
2023/12/11 07:36:46;;;;;;;6.30;4.13;;;;;;;16.66;100.00;100916.75;10562214;27;20142;-84
2023/12/11 07:42:10;;;;;;;13.25;7.97;;;;;;;16.66;100.00;100919.41;10569883;27;20058;-83
2023/12/11 07:47:33;;;;;;;7.88;6.50;;;;;;;16.59;100.00;100912.31;10576003;27;20048;-86
2023/12/11 07:53:00;;;;;;;16.42;11.70;;;;;;;16.82;100.00;100925.50;10596617;27;20112;-86
2023/12/11 07:58:24;;;;;;;32.17;26.55;;;;;;;18.50;100.00;100910.38;10596895;27;20039;-86
2023/12/11 08:03:47;;;;;;;5.10;2.63;;;;;;;17.95;100.00;100914.66;10599659;27;20400;-85
2023/12/11 08:09:11;;;;;;;5.15;2.83;;;;;;;19.01;100.00;100922.06;10572118;27;20050;-85
2023/12/11 08:14:37;;;;;;;22.25;17.40;;;;;;;20.36;100.00;100915.06;10585687;27;20335;-81
2023/12/11 08:20:00;;;;;;;14.68;12.73;;;;;;;21.66;100.00;100900.22;10591227;27;20049;-83
2023/12/11 08:25:25;;;;;;;4.13;2.42;;;;;;;21.75;100.00;100908.00;10573989;28;20059;-80
2023/12/11 08:30:48;;;;;;;5.03;1.77;;;;;;;20.44;100.00;100897.88;10598511;28;20058;-81
2023/12/11 08:36:11;;;;;;;4.85;1.63;;;;;;;20.06;100.00;100903.19;10585734;28;20071;-82
2023/12/11 08:41:36;;;;;;;2.72;1.50;;;;;;;20.75;100.00;100900.72;10596859;28;20039;-86
2023/12/11 08:46:58;;;;;;;7.05;3.35;;;;;;;20.63;100.00;100904.59;10598467;27;20086;-82
2023/12/11 08:52:21;;;;;;;4.05;1.20;;;;;;;20.17;100.00;100906.50;10584458;27;20039;-84
2023/12/11 08:57:46;;;;;;;3.58;1.10;;;;;;;19.83;100.00;100903.63;10579468;28;20046;-85
2023/12/11 09:03:13;;;;;;;4.47;2.63;;;;;;;19.82;100.00;100908.09;10598632;28;20053;-87
2023/12/11 09:08:36;;;;;;;3.60;2.10;;;;;;;20.11;100.00;100901.28;10576988;28;20051;-84
2023/12/11 09:14:03;;;;;;;2.45;0.90;;;;;;;19.83;100.00;100909.00;10593793;28;20051;-84
2023/12/11 09:19:27;;;;;;;3.55;0.95;;;;;;;20.07;100.00;100902.25;10569314;28;20039;-85
2023/12/11 09:24:50;;;;;;;3.72;1.80;;;;;;;21.43;100.00;100898.13;10569735;28;20044;-84
2023/12/11 09:30:16;;;;;;;2.33;1.20;;;;;;;25.76;100.00;100879.91;10573251;28;20562;-85
2023/12/11 09:35:39;;;;;;;3.30;1.30;;;;;;;22.62;100.00;100882.09;10586078;27;20142;-84
2023/12/11 09:41:04;;;;;;;6.10;1.92;;;;;;;19.60;100.00;100911.25;10594113;27;20043;-85
2023/12/11 09:46:33;;;;;;;1.67;1.30;;;;;;;18.76;100.00;100931.41;10577786;27;20051;-89
2023/12/11 09:51:57;;;;;;;8.48;2.55;;;;;;;18.90;100.00;100918.69;10596939;27;20053;-92
2023/12/11 09:57:21;;;;;;;3.83;1.98;;;;;;;19.55;100.00;100915.81;10584747;27;20100;-88
2023/12/11 10:02:54;;;;;;;16.42;3.13;;;;;;;19.72;100.00;100922.63;10582619;27;20180;-86
2023/12/11 10:08:17;;;;;;;8.07;2.58;;;;;;;18.60;100.00;100913.81;10583520;27;20556;-82
2023/12/11 10:13:40;;;;;;;6.35;1.80;;;;;;;18.05;100.00;100930.53;10607784;27;20043;-82
2023/12/11 10:19:05;;;;;;;7.20;3.70;;;;;;;17.85;100.00;100938.78;10599061;27;20047;-83
2023/12/11 10:24:30;;;;;;;5.70;3.03;;;;;;;17.84;100.00;100936.16;10578349;27;20390;-84
2023/12/11 10:30:11;;;;;;;6.50;2.38;;;;;;;17.82;100.00;100935.28;10606700;27;20037;-84
2023/12/11 10:35:34;;;;;;;6.15;3.30;;;;;;;17.71;100.00;100943.44;10607966;27;20115;-85
2023/12/11 10:40:57;;;;;;;4.80;2.42;;;;;;;17.87;100.00;100944.13;10607128;27;20082;-84
2023/12/11 10:46:19;;;;;;;5.22;3.50;;;;;;;18.36;100.00;100944.41;10591534;27;20039;-83
2023/12/11 10:51:44;;;;;;;7.25;3.40;;;;;;;18.89;100.00;100932.97;10593415;27;20388;-83
2023/12/11 10:57:12;;;;;;;10.20;5.50;;;;;;;19.23;100.00;100932.44;10593797;27;20076;-84
2023/12/11 11:02:36;;;;;;;43.05;38.95;;;;;;;19.67;100.00;100931.66;10570609;27;20075;-83
2023/12/11 11:08:08;;;;;;;23.02;20.88;;;;;;;19.69;100.00;100924.47;10592057;27;20043;-83
2023/12/11 11:13:38;;;;;;;36.13;32.55;;;;;;;19.58;100.00;100931.81;10570127;28;20047;-84
2023/12/11 11:19:08;;;;;;;41.35;37.47;;;;;;;19.25;100.00;100927.91;10596786;27;20035;-83
2023/12/11 11:24:32;;;;;;;30.08;27.45;;;;;;;18.39;100.00;100935.47;10563141;28;20138;-84
2023/12/11 11:29:55;;;;;;;47.33;42.83;;;;;;;18.63;100.00;100944.06;10567701;27;20043;-83
2023/12/11 11:35:51;;;;;;;9.52;5.15;;;;;;;18.78;100.00;100929.56;10591326;27;20055;-83
2023/12/11 11:41:37;;;;;;;26.48;21.85;;;;;;;18.55;100.00;100935.28;10582847;27;20039;-84
2023/12/11 11:47:03;;;;;;;17.85;15.95;;;;;;;18.99;100.00;100931.03;10555566;27;20147;-85
2023/12/11 11:52:28;;;;;;;12.77;11.38;;;;;;;18.97;100.00;100925.69;10587777;27;20537;-84
2023/12/11 11:57:52;;;;;;;29.10;25.63;;;;;;;18.91;100.00;100931.13;10604851;27;20057;-86
2023/12/11 12:03:16;;;;;;;27.70;25.15;;;;;;;19.02;100.00;100936.34;10592109;27;20051;-83
2023/12/11 12:08:43;;;;;;;31.85;29.10;;;;;;;18.92;100.00;100935.59;10572248;28;20401;-83
2023/12/11 12:14:14;;;;;;;28.42;25.75;;;;;;;18.60;100.00;100932.53;10554132;27;20097;-84
2023/12/11 12:19:36;;;;;;;17.98;16.15;;;;;;;18.37;100.00;100931.94;10574507;27;20509;-84
2023/12/11 12:24:59;;;;;;;24.98;22.48;;;;;;;18.36;100.00;100939.06;10570667;28;20066;-82
2023/12/11 12:30:24;;;;;;;12.70;11.60;;;;;;;18.26;100.00;100938.28;10601234;28;20088;-83
2023/12/11 12:35:48;;;;;;;29.02;26.17;;;;;;;18.34;100.00;100946.22;10592383;28;20076;-85
2023/12/11 12:41:12;;;;;;;23.77;21.65;;;;;;;18.12;100.00;100950.06;10578804;28;20039;-84
2023/12/11 12:46:44;;;;;;;24.40;22.30;;;;;;;18.28;100.00;100951.66;10600111;28;20071;-85
2023/12/11 12:52:06;;;;;;;6.10;5.00;;;;;;;18.49;100.00;100961.19;10562938;28;20079;-84
2023/12/11 12:57:36;;;;;;;22.00;19.80;;;;;;;18.82;100.00;100963.41;10565084;28;20484;-84
2023/12/11 13:03:02;;;;;;;32.13;28.92;;;;;;;19.66;100.00;100954.88;10602037;28;20377;-82
2023/12/11 13:08:27;;;;;;;19.30;10.23;;;;;;;19.37;100.00;100970.53;10576541;27;20130;-83
2023/12/11 13:13:55;;;;;;;7.43;4.60;;;;;;;18.58;100.00;100987.81;10589552;27;20050;-84
2023/12/11 13:19:19;;;;;;;5.88;5.28;;;;;;;18.56;100.00;101000.34;10597002;27;20053;-83
2023/12/11 13:24:44;;;;;;;13.48;8.95;;;;;;;18.53;100.00;101011.03;10577646;27;20131;-84
2023/12/11 13:30:09;;;;;;;12.93;7.45;;;;;;;18.71;100.00;101018.81;10605304;27;20118;-85
2023/12/11 13:35:36;;;;;;;10.90;6.88;;;;;;;18.75;100.00;101017.91;10592418;27;20054;-84
2023/12/11 13:40:59;;;;;;;18.33;13.00;;;;;;;18.83;100.00;101033.84;10586760;27;20794;-83
2023/12/11 13:46:21;;;;;;;10.93;7.10;;;;;;;18.88;100.00;101038.22;10613142;27;20043;-84
2023/12/11 13:51:46;;;;;;;5.68;2.28;;;;;;;18.79;100.00;101041.00;10603037;27;20065;-83
2023/12/11 13:57:09;;;;;;;39.38;35.40;;;;;;;18.54;100.00;101050.22;10583574;27;20067;-84
2023/12/11 14:02:31;;;;;;;46.80;42.28;;;;;;;18.35;100.00;101059.38;10602166;27;20050;-84
2023/12/11 14:07:58;;;;;;;9.88;8.98;;;;;;;18.30;100.00;101064.78;10594952;27;20050;-82
2023/12/11 14:13:20;;;;;;;3.67;1.65;;;;;;;18.21;100.00;101071.09;10604305;27;20051;-83
2023/12/11 14:18:43;;;;;;;20.67;13.00;;;;;;;18.03;100.00;101073.09;10584940;27;20043;-84
2023/12/11 14:24:08;;;;;;;47.13;29.05;;;;;;;17.83;100.00;101073.28;10603472;27;20043;-84
2023/12/11 14:29:31;;;;;;;20.90;13.93;;;;;;;17.76;100.00;101077.78;10588679;27;20043;-83
2023/12/11 14:34:54;;;;;;;63.38;31.60;;;;;;;17.68;100.00;101089.41;10605068;27;20043;-85
2023/12/11 14:40:18;;;;;;;30.63;18.38;;;;;;;17.54;100.00;101095.72;10611485;27;20043;-85
2023/12/11 14:45:41;;;;;;;30.58;19.13;;;;;;;17.28;100.00;101096.81;10604861;27;20463;-84
2023/12/11 14:51:04;;;;;;;18.55;13.05;;;;;;;17.13;100.00;101109.34;10605901;27;20636;-83
2023/12/11 14:56:28;;;;;;;8.98;6.75;;;;;;;16.88;100.00;101123.69;10604511;27;20047;-83
2023/12/11 15:01:50;;;;;;;25.13;18.60;;;;;;;16.80;100.00;101130.88;10595047;27;20043;-79
2023/12/11 15:07:13;;;;;;;26.55;21.00;;;;;;;16.70;100.00;101139.78;10579875;27;20054;-82
2023/12/11 15:12:37;;;;;;;38.10;28.67;;;;;;;16.81;100.00;101142.38;10591037;27;20047;-81
2023/12/11 15:17:59;;;;;;;23.58;18.17;;;;;;;16.94;100.00;101138.78;10595540;27;20067;-82
2023/12/11 15:23:21;;;;;;;34.92;25.75;;;;;;;16.99;100.00;101131.66;10600654;27;20054;-81
2023/12/11 15:28:45;;;;;;;19.25;14.02;;;;;;;17.14;100.00;101136.91;10604022;27;20066;-80
2023/12/11 15:34:08;;;;;;;10.50;7.13;;;;;;;17.06;100.00;101146.75;10597996;27;20115;-82
2023/12/11 15:39:30;;;;;;;6.55;5.93;;;;;;;16.81;100.00;101159.28;10603889;27;20075;-81
2023/12/11 15:44:54;;;;;;;9.00;6.05;;;;;;;16.41;100.00;101168.25;10589143;27;20043;-82
2023/12/11 15:50:16;;;;;;;10.02;8.30;;;;;;;16.25;100.00;101175.38;10602844;27;20074;-83
2023/12/11 15:55:38;;;;;;;8.98;6.32;;;;;;;16.29;100.00;101190.47;10592283;27;20051;-81
2023/12/11 16:01:04;;;;;;;51.40;29.63;;;;;;;16.33;100.00;101187.81;10601928;27;20054;-82
2023/12/11 16:06:28;;;;;;;12.98;7.43;;;;;;;16.34;100.00;101196.69;10587935;27;20047;-83
2023/12/11 16:11:50;;;;;;;36.25;28.42;;;;;;;16.42;100.00;101210.88;10590772;27;20059;-81
2023/12/11 16:17:14;;;;;;;39.47;25.00;;;;;;;16.46;100.00;101201.13;10603220;27;20042;-80
2023/12/11 16:22:37;;;;;;;25.08;19.70;;;;;;;16.48;100.00;101208.19;10588159;27;20393;-82
2023/12/11 16:27:59;;;;;;;20.13;12.60;;;;;;;16.50;100.00;101203.75;10599240;28;20043;-81
2023/12/11 16:33:23;;;;;;;15.30;11.60;;;;;;;16.46;100.00;101201.13;10596390;27;20745;-82
2023/12/11 16:38:46;;;;;;;32.38;18.88;;;;;;;16.40;100.00;101207.34;10593802;28;20087;-82
2023/12/11 16:44:08;;;;;;;37.08;22.58;;;;;;;16.46;100.00;101198.44;10590462;27;20047;-83
2023/12/11 16:49:32;;;;;;;24.23;15.15;;;;;;;16.32;100.00;101198.47;10563582;27;20052;-82
2023/12/11 16:54:54;;;;;;;22.15;16.40;;;;;;;16.24;100.00;101198.47;10567398;28;20047;-80
2023/12/11 17:00:17;;;;;;;11.43;7.72;;;;;;;16.14;100.00;101201.16;10581005;27;20055;-82
2023/12/11 17:05:41;;;;;;;55.47;43.40;;;;;;;16.06;100.00;101206.47;10559908;28;20551;-83
2023/12/11 17:11:03;;;;;;;64.10;57.20;;;;;;;16.01;100.00;101213.56;10578089;28;20047;-82
2023/12/11 17:16:26;;;;;;;34.97;27.45;;;;;;;15.89;100.00;101218.84;10580339;28;20051;-81
2023/12/11 17:21:50;;;;;;;21.27;18.23;;;;;;;15.77;100.00;101221.50;10579233;27;20040;-82
2023/12/11 17:27:16;;;;;;;17.45;9.77;;;;;;;15.68;100.00;101221.50;10571084;28;20401;-81
2023/12/11 17:32:39;;;;;;;10.23;6.47;;;;;;;15.48;100.00;101232.06;10565014;28;20055;-82
2023/12/11 17:38:03;;;;;;;13.63;9.48;;;;;;;15.24;100.00;101247.91;10549151;28;20051;-81
2023/12/11 17:43:25;;;;;;;9.90;6.35;;;;;;;15.12;100.00;101241.69;10578644;28;20075;-82
2023/12/11 17:48:48;;;;;;;10.77;8.02;;;;;;;15.15;100.00;101251.44;10577361;28;20493;-83
2023/12/11 17:54:27;;;;;;;13.05;11.10;;;;;;;15.02;100.00;101249.63;10564188;28;20112;-81
2023/12/11 17:59:50;;;;;;;12.77;9.00;;;;;;;15.18;100.00;101255.88;10565984;28;20040;-83
2023/12/11 18:05:14;;;;;;;12.43;8.00;;;;;;;15.15;100.00;101255.00;10575094;28;20439;-81
2023/12/11 18:10:38;;;;;;;14.20;9.43;;;;;;;15.07;100.00;101253.19;10559221;28;20067;-80
2023/12/11 18:16:01;;;;;;;22.88;14.30;;;;;;;15.23;100.00;101254.16;10555017;28;20040;-81
2023/12/11 18:21:23;;;;;;;13.00;9.07;;;;;;;15.46;100.00;101248.03;10581608;28;20105;-80
2023/12/11 18:26:47;;;;;;;11.52;7.57;;;;;;;15.59;100.00;101248.97;10579346;28;20557;-81
2023/12/11 18:32:09;;;;;;;23.42;13.25;;;;;;;15.56;100.00;101250.75;10580104;27;20059;-80
2023/12/11 18:37:31;;;;;;;12.65;8.45;;;;;;;15.32;100.00;101259.50;10581750;28;20046;-82
2023/12/11 18:42:55;;;;;;;18.20;12.68;;;;;;;15.31;100.00;101265.69;10580608;28;20058;-81
2023/12/11 18:48:17;;;;;;;32.97;20.17;;;;;;;15.49;100.00;101260.47;10600353;27;20047;-80
2023/12/11 18:53:42;;;;;;;33.63;21.02;;;;;;;15.60;100.00;101264.06;10608258;27;20496;-79
2023/12/11 18:59:06;;;;;;;11.32;8.23;;;;;;;15.56;100.00;101264.94;10585060;27;20114;-80
2023/12/11 19:04:28;;;;;;;18.30;11.32;;;;;;;15.59;100.00;101270.28;10590909;27;20111;-82
2023/12/11 19:09:50;;;;;;;30.92;23.83;;;;;;;15.55;100.00;101281.81;10601432;27;20100;-83
2023/12/11 19:15:15;;;;;;;25.35;17.92;;;;;;;15.69;100.00;101277.38;10609169;27;20047;-83
2023/12/11 19:20:38;;;;;;;21.05;15.60;;;;;;;15.73;100.00;101275.63;10606703;27;20054;-82
2023/12/11 19:26:00;;;;;;;19.20;12.23;;;;;;;15.62;100.00;101278.25;10594867;27;20078;-83
2023/12/11 19:31:25;;;;;;;11.82;8.40;;;;;;;15.67;100.00;101287.16;10584301;27;20054;-84
2023/12/11 19:36:47;;;;;;;12.15;7.32;;;;;;;15.85;100.00;101297.84;10594315;27;20576;-82
2023/12/11 19:42:10;;;;;;;15.07;9.95;;;;;;;15.77;100.00;101294.28;10580828;27;20050;-82
2023/12/11 19:47:33;;;;;;;15.85;12.27;;;;;;;15.37;100.00;101295.88;10605747;27;20096;-82
2023/12/11 19:52:56;;;;;;;8.07;6.13;;;;;;;15.11;100.00;101297.50;10592144;27;20047;-81
2023/12/11 19:58:19;;;;;;;10.40;6.28;;;;;;;14.93;100.00;101300.94;10607847;27;20051;-82
2023/12/11 20:03:44;;;;;;;8.85;5.65;;;;;;;14.91;100.00;101307.13;10599032;27;20047;-82
2023/12/11 20:09:07;;;;;;;19.85;12.27;;;;;;;14.94;100.00;101309.81;10604364;27;20058;-81
2023/12/11 20:14:30;;;;;;;26.48;14.48;;;;;;;14.95;100.00;101316.94;10604344;27;20085;-81
2023/12/11 20:19:56;;;;;;;29.77;18.00;;;;;;;14.75;100.00;101327.41;10623299;27;20075;-81
2023/12/11 20:25:18;;;;;;;11.88;6.65;;;;;;;14.57;100.00;101321.97;10569265;28;20055;-81
2023/12/11 20:30:41;;;;;;;14.10;9.15;;;;;;;14.60;100.00;101320.19;10588771;28;20046;-81
2023/12/11 20:36:05;;;;;;;12.52;7.20;;;;;;;14.43;100.00;101321.84;10587909;28;20081;-80
2023/12/11 20:41:29;;;;;;;22.27;11.68;;;;;;;14.27;100.00;101327.84;10584647;28;20088;-79
2023/12/11 20:46:52;;;;;;;14.18;8.85;;;;;;;14.13;100.00;101330.34;10581862;28;20056;-79
2023/12/11 20:52:16;;;;;;;29.15;14.23;;;;;;;14.00;100.00;101324.91;10584740;28;20043;-78
2023/12/11 20:57:38;;;;;;;19.75;11.98;;;;;;;13.92;100.00;101319.50;10589008;28;20047;-78
2023/12/11 21:03:02;;;;;;;76.72;40.72;;;;;;;13.88;100.00;101315.03;10581142;28;20131;-80
2023/12/11 21:08:26;;;;;;;65.75;55.80;;;;;;;13.80;100.00;101324.69;10570251;28;20067;-80
2023/12/11 21:13:48;;;;;;;47.22;26.80;;;;;;;13.59;100.00;101337.72;10590420;27;20049;-80
2023/12/11 21:19:11;;;;;;;25.33;16.38;;;;;;;13.36;100.00;101343.59;10588659;28;20039;-80
2023/12/11 21:24:34;;;;;;;14.55;8.38;;;;;;;13.36;100.00;101350.66;10600316;28;20043;-80
2023/12/11 21:29:57;;;;;;;17.83;10.43;;;;;;;13.38;100.00;101355.13;10606077;27;20067;-80
2023/12/11 21:35:19;;;;;;;8.10;5.93;;;;;;;13.44;100.00;101346.34;10594978;27;20051;-80
2023/12/11 21:40:43;;;;;;;10.43;7.03;;;;;;;13.65;100.00;101349.28;10596149;27;20070;-78
2023/12/11 21:46:06;;;;;;;12.32;7.28;;;;;;;13.80;100.00;101346.81;10607995;27;20051;-80
2023/12/11 21:51:28;;;;;;;9.63;6.38;;;;;;;13.78;100.00;101342.38;10609838;27;20043;-81
2023/12/11 21:56:54;;;;;;;9.70;6.68;;;;;;;13.70;100.00;101339.63;10556333;28;20130;-81
2023/12/11 22:02:16;;;;;;;12.95;6.45;;;;;;;13.72;100.00;101350.25;10584427;27;20048;-80
2023/12/11 22:07:39;;;;;;;12.68;7.43;;;;;;;13.91;100.00;101347.81;10559942;28;20052;-81
2023/12/11 22:13:03;;;;;;;8.65;6.50;;;;;;;13.92;100.00;101359.31;10563726;27;20055;-81
2023/12/11 22:18:25;;;;;;;9.25;6.70;;;;;;;13.89;100.00;101354.00;10565742;28;20077;-80
2023/12/11 22:23:47;;;;;;;16.48;8.98;;;;;;;13.89;100.00;101364.59;10580641;27;20055;-80
2023/12/11 22:29:13;;;;;;;12.82;7.93;;;;;;;13.88;100.00;101354.84;10607893;27;20080;-82
2023/12/11 22:34:39;;;;;;;12.40;6.63;;;;;;;13.58;100.00;101352.75;10607592;27;20100;-82
2023/12/11 22:40:01;;;;;;;7.30;5.25;;;;;;;13.50;100.00;101354.38;10606751;27;20047;-82
2023/12/11 22:45:25;;;;;;;8.07;5.63;;;;;;;13.65;100.00;101354.59;10595089;27;20047;-81
2023/12/11 22:50:47;;;;;;;10.60;6.40;;;;;;;13.55;100.00;101353.56;10606568;27;20051;-82
2023/12/11 22:56:10;;;;;;;8.75;5.25;;;;;;;13.61;100.00;101349.22;10606492;27;20032;-81
2023/12/11 23:01:34;;;;;;;12.00;7.07;;;;;;;13.70;100.00;101357.28;10605240;27;20047;-80
2023/12/11 23:06:56;;;;;;;6.50;4.55;;;;;;;13.40;100.00;101345.41;10602559;27;20745;-80
2023/12/11 23:12:19;;;;;;;8.85;5.78;;;;;;;13.55;100.00;101348.28;10605261;27;20079;-80
2023/12/11 23:17:42;;;;;;;11.10;5.75;;;;;;;13.39;100.00;101348.94;10590110;27;20051;-80
2023/12/11 23:23:05;;;;;;;10.82;6.30;;;;;;;13.46;100.00;101358.75;10604841;27;20054;-81
2023/12/11 23:28:27;;;;;;;10.50;5.40;;;;;;;13.46;100.00;101356.09;10575086;28;20043;-81
2023/12/11 23:33:51;;;;;;;7.68;4.70;;;;;;;13.44;100.00;101349.00;10562168;28;20099;-81
2023/12/11 23:39:14;;;;;;;12.98;7.38;;;;;;;13.35;100.00;101346.22;10561736;28;20062;-81
2023/12/11 23:44:37;;;;;;;12.10;6.00;;;;;;;13.24;100.00;101355.81;10603291;27;20546;-80
2023/12/11 23:50:00;;;;;;;6.15;4.78;;;;;;;13.22;100.00;101357.53;10603536;27;20074;-81
2023/12/11 23:55:24;;;;;;;8.55;4.63;;;;;;;13.41;100.00;101362.22;10593473;27;20171;-80
